createdAt,value
2023-03-12T00:01:21.733Z,10.85
2023-03-12T00:03:49.072Z,11.75
2023-03-12T00:06:16.122Z,10.55
2023-03-12T00:08:42.543Z,11.25
2023-03-12T00:11:14.664Z,10.80
2023-03-12T00:13:41.096Z,11.48
2023-03-12T00:16:13.088Z,12.88
2023-03-12T00:18:40.036Z,10.88
2023-03-12T00:21:07.187Z,11.38
2023-03-12T00:23:34.177Z,10.63
2023-03-12T00:26:02.597Z,9.93
2023-03-12T00:28:29.276Z,8.98
2023-03-12T00:30:57.237Z,8.13
2023-03-12T00:33:27.487Z,9.48
2023-03-12T00:35:53.962Z,9.60
2023-03-12T00:38:20.451Z,8.30
2023-03-12T00:40:47.073Z,8.57
2023-03-12T00:43:13.727Z,8.00
2023-03-12T00:45:40.132Z,7.55
2023-03-12T00:48:06.659Z,7.68
2023-03-12T00:50:34.106Z,7.90
2023-03-12T00:53:00.496Z,7.68
2023-03-12T00:55:26.886Z,7.15
2023-03-12T00:57:53.290Z,8.85
2023-03-12T01:00:19.889Z,7.07
2023-03-12T01:02:46.276Z,7.57
2023-03-12T01:05:12.988Z,7.43
2023-03-12T01:07:39.978Z,6.75
2023-03-12T01:10:08.063Z,6.35
2023-03-12T01:12:34.469Z,6.50
2023-03-12T01:15:01.083Z,7.03
2023-03-12T01:17:27.486Z,6.05
2023-03-12T01:19:53.858Z,6.93
2023-03-12T01:22:20.265Z,7.15
2023-03-12T01:24:46.896Z,7.05
2023-03-12T01:27:13.313Z,6.68
2023-03-12T01:29:39.907Z,6.00
2023-03-12T01:32:06.701Z,6.40
2023-03-12T01:34:35.323Z,6.40
2023-03-12T01:37:02.068Z,5.82
2023-03-12T01:39:28.629Z,6.05
2023-03-12T01:41:55.370Z,6.63
2023-03-12T01:44:21.743Z,6.38
2023-03-12T01:46:48.235Z,5.85
2023-03-12T01:49:34.972Z,6.25
2023-03-12T01:52:09.634Z,5.45
2023-03-12T01:54:48.148Z,5.68
2023-03-12T01:57:29.894Z,5.95
2023-03-12T02:00:04.536Z,6.90
2023-03-12T02:02:31.055Z,5.97
2023-03-12T02:05:05.305Z,5.78
2023-03-12T02:07:33.734Z,5.72
2023-03-12T02:10:00.187Z,6.68
2023-03-12T02:12:26.596Z,6.38
2023-03-12T02:14:53.263Z,6.13
2023-03-12T02:17:19.666Z,5.35
2023-03-12T02:20:27.083Z,5.20
2023-03-12T02:23:02.835Z,4.93
2023-03-12T02:25:42.052Z,4.78
2023-03-12T02:28:12.687Z,5.75
2023-03-12T02:30:42.572Z,5.07
2023-03-12T02:33:09.668Z,5.38
2023-03-12T02:35:36.951Z,5.53
2023-03-12T02:38:23.684Z,5.28
2023-03-12T02:40:51.151Z,5.13
2023-03-12T02:43:19.607Z,5.47
2023-03-12T02:45:45.998Z,5.43
2023-03-12T02:48:12.407Z,6.55
2023-03-12T02:50:38.782Z,7.93
2023-03-12T02:53:05.202Z,5.95
2023-03-12T02:55:31.630Z,8.10
2023-03-12T02:57:58.032Z,4.85
2023-03-12T03:00:25.148Z,5.53
2023-03-12T03:02:51.541Z,6.63
2023-03-12T03:05:17.995Z,6.88
2023-03-12T03:07:44.398Z,7.15
2023-03-12T03:10:11.098Z,7.72
2023-03-12T03:12:37.542Z,7.05
2023-03-12T03:15:05.118Z,7.13
2023-03-12T03:17:31.498Z,6.47
2023-03-12T03:19:57.874Z,7.22
2023-03-12T03:22:24.401Z,11.52
2023-03-12T03:24:50.838Z,10.88
2023-03-12T03:27:17.227Z,11.23
2023-03-12T03:29:46.045Z,10.93
2023-03-12T03:32:12.848Z,10.50
2023-03-12T03:34:39.355Z,18.08
2023-03-12T03:37:05.808Z,11.02
2023-03-12T03:39:32.770Z,8.00
2023-03-12T03:41:59.156Z,14.43
2023-03-12T03:44:25.636Z,10.27
2023-03-12T03:46:53.329Z,7.30
2023-03-12T03:49:20.179Z,7.35
2023-03-12T03:51:46.692Z,15.98
2023-03-12T03:54:13.215Z,11.85
2023-03-12T03:56:40.531Z,6.03
2023-03-12T03:59:07.393Z,6.00
2023-03-12T04:01:33.782Z,4.95
2023-03-12T04:04:00.247Z,7.10
2023-03-12T04:06:26.684Z,7.75
2023-03-12T04:08:53.076Z,5.28
2023-03-12T04:11:20.956Z,5.93
2023-03-12T04:13:47.575Z,8.95
2023-03-12T04:16:14.276Z,5.25
2023-03-12T04:18:40.839Z,4.90
2023-03-12T04:21:09.237Z,4.80
2023-03-12T04:23:35.637Z,4.88
2023-03-12T04:26:02.236Z,4.50
2023-03-12T04:28:28.709Z,4.13
2023-03-12T04:30:56.475Z,3.88
2023-03-12T04:33:22.932Z,4.57
2023-03-12T04:35:53.243Z,4.40
2023-03-12T04:38:23.996Z,4.38
2023-03-12T04:40:59.790Z,4.20
2023-03-12T04:43:26.776Z,4.93
2023-03-12T04:45:53.153Z,5.78
2023-03-12T04:48:19.530Z,4.70
2023-03-12T04:50:45.936Z,5.00
2023-03-12T04:53:12.395Z,4.90
2023-03-12T04:55:38.768Z,3.92
2023-03-12T04:58:05.144Z,3.83
2023-03-12T05:00:31.820Z,3.38
2023-03-12T05:02:58.292Z,3.30
2023-03-12T05:05:24.848Z,3.33
2023-03-12T05:07:51.226Z,3.70
2023-03-12T05:10:17.597Z,3.92
2023-03-12T05:12:44.007Z,3.00
2023-03-12T05:15:10.614Z,2.92
2023-03-12T05:17:37.080Z,3.53
2023-03-12T05:20:05.834Z,2.97
2023-03-12T05:22:32.520Z,3.20
2023-03-12T05:24:58.888Z,2.83
2023-03-12T05:27:29.500Z,3.10
2023-03-12T05:29:57.278Z,2.88
2023-03-12T05:32:23.804Z,2.72
2023-03-12T05:34:50.196Z,3.20
2023-03-12T05:37:16.581Z,3.10
2023-03-12T05:39:46.716Z,2.70
2023-03-12T05:42:14.117Z,2.88
2023-03-12T05:44:40.964Z,2.70
2023-03-12T05:47:07.450Z,3.03
2023-03-12T05:49:33.863Z,2.70
2023-03-12T05:52:00.316Z,3.00
2023-03-12T05:54:27.008Z,2.80
2023-03-12T05:56:53.423Z,2.78
2023-03-12T05:59:19.807Z,2.95
2023-03-12T06:01:46.384Z,3.03
2023-03-12T06:04:12.922Z,3.22
2023-03-12T06:06:39.298Z,3.38
2023-03-12T06:09:06.553Z,3.17
2023-03-12T06:11:33.945Z,3.33
2023-03-12T06:14:00.638Z,3.00
2023-03-12T06:16:27.638Z,2.72
2023-03-12T06:18:55.281Z,2.67
2023-03-12T06:21:25.306Z,3.28
2023-03-12T06:23:52.373Z,2.90
2023-03-12T06:26:19.725Z,2.95
2023-03-12T06:28:47.026Z,2.40
2023-03-12T06:31:13.727Z,2.50
2023-03-12T06:33:40.131Z,2.03
2023-03-12T06:36:07.701Z,2.47
2023-03-12T06:38:34.703Z,2.45
2023-03-12T06:41:06.409Z,2.80
2023-03-12T06:43:34.167Z,2.90
2023-03-12T06:46:01.637Z,2.33
2023-03-12T06:48:30.438Z,2.38
2023-03-12T06:50:56.854Z,2.30
2023-03-12T06:53:23.424Z,2.72
2023-03-12T06:55:50.950Z,2.50
2023-03-12T06:58:17.497Z,2.60
2023-03-12T07:00:43.961Z,2.65
2023-03-12T07:03:10.435Z,2.45
2023-03-12T07:05:36.811Z,3.28
2023-03-12T07:08:03.218Z,2.65
2023-03-12T07:10:29.766Z,3.00
2023-03-12T07:12:57.101Z,2.72
2023-03-12T07:15:23.918Z,2.83
2023-03-12T07:17:50.388Z,3.15
2023-03-12T07:20:17.091Z,3.25
2023-03-12T07:22:43.489Z,3.40
2023-03-12T07:25:10.631Z,3.05
2023-03-12T07:27:37.034Z,3.40
2023-03-12T07:30:04.120Z,2.75
2023-03-12T07:32:30.614Z,3.38
2023-03-12T07:34:57.005Z,3.42
2023-03-12T07:37:23.648Z,4.30
2023-03-12T07:39:52.929Z,3.55
2023-03-12T07:42:19.436Z,3.42
2023-03-12T07:44:45.976Z,3.60
2023-03-12T07:47:23.222Z,3.95
2023-03-12T07:49:50.958Z,4.03
2023-03-12T07:52:18.272Z,4.20
2023-03-12T07:54:44.838Z,4.00
2023-03-12T07:57:11.650Z,4.00
2023-03-12T07:59:38.243Z,4.45
2023-03-12T08:02:04.754Z,4.30
2023-03-12T08:04:31.326Z,3.80
2023-03-12T08:06:58.238Z,5.13
2023-03-12T08:09:24.766Z,4.85
2023-03-12T08:11:51.588Z,4.47
2023-03-12T08:14:18.116Z,3.97
2023-03-12T08:16:44.583Z,4.78
2023-03-12T08:19:11.168Z,5.07
2023-03-12T08:21:37.571Z,5.43
2023-03-12T08:24:04.848Z,4.55
2023-03-12T08:26:31.258Z,5.50
2023-03-12T08:29:00.056Z,4.93
2023-03-12T08:31:28.390Z,5.93
2023-03-12T08:33:54.808Z,5.20
2023-03-12T08:36:22.481Z,5.22
2023-03-12T08:38:49.079Z,4.93
2023-03-12T08:41:15.466Z,5.60
2023-03-12T08:43:41.963Z,5.38
2023-03-12T08:46:09.854Z,7.50
2023-03-12T08:48:38.621Z,5.45
2023-03-12T08:51:07.321Z,5.78
2023-03-12T08:53:35.616Z,6.28
2023-03-12T08:56:02.265Z,5.63
2023-03-12T08:58:29.217Z,5.25
2023-03-12T09:00:56.278Z,5.68
2023-03-12T09:03:23.399Z,5.47
2023-03-12T09:05:50.398Z,5.10
2023-03-12T09:08:17.630Z,5.90
2023-03-12T09:10:48.854Z,5.63
2023-03-12T09:13:15.449Z,5.87
2023-03-12T09:15:41.883Z,5.78
2023-03-12T09:18:08.325Z,6.00
2023-03-12T09:20:34.756Z,5.50
2023-03-12T09:23:01.186Z,5.63
2023-03-12T09:25:27.680Z,6.10
2023-03-12T09:27:54.070Z,5.70
2023-03-12T09:30:22.241Z,6.78
2023-03-12T09:32:48.787Z,6.55
2023-03-12T09:35:16.179Z,6.78
2023-03-12T09:37:42.943Z,6.57
2023-03-12T09:40:17.092Z,6.38
2023-03-12T09:42:59.392Z,6.60
2023-03-12T09:45:28.226Z,6.80
2023-03-12T09:47:57.600Z,6.68
2023-03-12T09:50:33.334Z,6.35
2023-03-12T09:53:25.824Z,5.80
2023-03-12T09:58:24.344Z,5.10
2023-03-12T10:00:53.386Z,5.55
2023-03-12T10:03:26.728Z,5.50
2023-03-12T10:06:13.917Z,5.10
2023-03-12T10:09:07.666Z,4.90
2023-03-12T10:11:57.302Z,4.50
2023-03-12T10:14:51.505Z,4.32
2023-03-12T10:17:55.510Z,5.03
2023-03-12T10:20:38.866Z,4.90
2023-03-12T10:23:28.135Z,4.80
2023-03-12T10:26:06.005Z,4.97
2023-03-12T10:28:57.500Z,5.20
2023-03-12T10:31:27.876Z,5.15
2023-03-12T10:33:59.600Z,5.50
2023-03-12T10:36:29.773Z,5.72
2023-03-12T10:38:56.301Z,5.97
2023-03-12T10:41:25.706Z,6.10
2023-03-12T10:43:52.390Z,6.07
2023-03-12T10:46:36.989Z,5.78
2023-03-12T10:49:21.792Z,5.75
2023-03-12T10:51:55.481Z,5.55
2023-03-12T10:54:26.331Z,6.63
2023-03-12T10:56:52.699Z,6.03
2023-03-12T10:59:25.199Z,6.05
2023-03-12T11:01:52.711Z,6.13
2023-03-12T11:04:24.059Z,5.93
2023-03-12T11:07:16.355Z,5.75
2023-03-12T11:09:42.759Z,6.10
2023-03-12T11:12:24.352Z,6.30
2023-03-12T11:14:50.730Z,5.78
2023-03-12T11:17:24.140Z,5.68
2023-03-12T11:19:50.757Z,6.05
2023-03-12T11:22:31.984Z,7.05
2023-03-12T11:25:00.648Z,5.82
2023-03-12T11:27:35.812Z,5.80
2023-03-12T11:30:04.303Z,6.20
2023-03-12T11:32:36.692Z,6.25
2023-03-12T11:35:08.168Z,6.30
2023-03-12T11:37:59.728Z,7.28
2023-03-12T11:40:47.869Z,6.93
2023-03-12T11:43:36.241Z,6.82
2023-03-12T11:46:29.794Z,7.45
2023-03-12T11:49:05.448Z,7.75
2023-03-12T11:51:50.314Z,7.82
2023-03-12T11:54:28.411Z,7.72
2023-03-12T11:57:06.955Z,8.43
2023-03-12T12:00:02.476Z,9.50
2023-03-12T12:02:45.928Z,9.95
2023-03-12T12:05:43.651Z,8.93
2023-03-12T12:08:26.674Z,10.75
2023-03-12T12:11:05.073Z,10.90
2023-03-12T12:14:02.733Z,13.20
2023-03-12T12:16:37.024Z,12.60
2023-03-12T12:19:15.748Z,12.68
2023-03-12T12:22:06.875Z,12.27
2023-03-12T12:24:42.634Z,12.60
2023-03-12T12:27:23.319Z,13.25
2023-03-12T12:30:22.749Z,15.25
2023-03-12T12:32:57.012Z,15.95
2023-03-12T12:35:49.749Z,14.63
2023-03-12T12:38:39.742Z,14.50
2023-03-12T12:41:22.838Z,14.57
2023-03-12T12:43:51.614Z,15.63
2023-03-12T12:46:21.202Z,15.52
2023-03-12T12:49:08.148Z,15.30
2023-03-12T12:51:38.058Z,15.25
2023-03-12T12:54:13.879Z,14.90
2023-03-12T12:56:45.930Z,15.75
2023-03-12T12:59:31.725Z,16.40
2023-03-12T13:01:59.540Z,17.23
2023-03-12T13:04:35.035Z,18.98
2023-03-12T13:07:13.713Z,16.75
2023-03-12T13:09:50.382Z,17.13
2023-03-12T13:12:34.620Z,17.73
2023-03-12T13:15:02.510Z,15.88
2023-03-12T13:17:31.474Z,17.02
2023-03-12T13:20:18.088Z,15.50
2023-03-12T13:23:02.585Z,15.90
2023-03-12T13:26:06.199Z,14.20
2023-03-12T13:28:41.575Z,16.10
2023-03-12T13:31:15.137Z,16.10
2023-03-12T13:33:48.084Z,17.40
2023-03-12T13:36:17.542Z,19.23
2023-03-12T13:39:06.439Z,18.45
2023-03-12T13:41:34.263Z,20.15
2023-03-12T13:44:01.429Z,17.58
2023-03-12T13:46:33.413Z,17.58
2023-03-12T13:49:02.732Z,18.67
2023-03-12T13:51:29.291Z,18.23
2023-03-12T13:54:00.529Z,19.00
2023-03-12T13:56:31.778Z,17.07
2023-03-12T13:59:15.564Z,17.53
2023-03-12T14:01:46.887Z,17.20
2023-03-12T14:04:19.734Z,17.65
2023-03-12T14:07:00.191Z,20.60
2023-03-12T14:09:29.261Z,19.75
2023-03-12T14:12:24.971Z,19.33
2023-03-12T14:15:05.044Z,19.30
2023-03-12T14:17:32.693Z,19.92
2023-03-12T14:20:12.879Z,22.10
2023-03-12T14:22:41.653Z,20.95
2023-03-12T14:25:32.105Z,17.65
2023-03-12T14:27:58.738Z,16.52
2023-03-12T14:30:40.613Z,17.90
2023-03-12T14:33:07.624Z,19.45
2023-03-12T14:35:39.112Z,15.77
2023-03-12T14:38:11.032Z,16.35
2023-03-12T14:40:45.859Z,15.25
2023-03-12T14:43:20.245Z,13.18
2023-03-12T14:45:46.671Z,12.32
2023-03-12T14:48:13.059Z,14.40
2023-03-12T14:50:40.836Z,12.75
2023-03-12T14:53:12.832Z,12.55
2023-03-12T14:55:39.240Z,12.63
2023-03-12T14:58:07.161Z,12.10
2023-03-12T15:00:33.662Z,11.98
2023-03-12T15:03:03.259Z,11.77
2023-03-12T15:05:29.697Z,10.25
2023-03-12T15:08:01.563Z,12.32
2023-03-12T15:10:29.534Z,11.38
2023-03-12T15:12:57.801Z,11.32
2023-03-12T15:15:40.169Z,11.95
2023-03-12T15:20:34.322Z,9.07
2023-03-12T15:23:03.424Z,9.02
2023-03-12T15:25:33.598Z,8.40
2023-03-12T15:28:04.659Z,7.97
2023-03-12T15:30:31.829Z,8.77
2023-03-12T15:33:11.560Z,9.50
2023-03-12T15:35:43.677Z,8.00
2023-03-12T15:38:17.400Z,7.85
2023-03-12T15:40:56.066Z,8.82
2023-03-12T15:43:24.012Z,7.35
2023-03-12T15:45:59.238Z,8.38
2023-03-12T15:48:32.274Z,10.45
2023-03-12T15:50:58.915Z,7.35
2023-03-12T15:53:33.150Z,7.85
2023-03-12T15:56:24.926Z,6.93
2023-03-12T15:59:15.934Z,6.43
2023-03-12T16:01:46.377Z,7.85
2023-03-12T16:04:13.395Z,7.07
2023-03-12T16:06:40.052Z,6.82
2023-03-12T16:09:06.459Z,7.65
2023-03-12T16:11:34.905Z,6.82
2023-03-12T16:14:05.199Z,7.30
2023-03-12T16:16:31.658Z,8.98
2023-03-12T16:18:58.085Z,9.15
2023-03-12T16:21:24.554Z,7.25
2023-03-12T16:23:50.982Z,6.35
2023-03-12T16:26:17.631Z,6.25
2023-03-12T16:28:44.643Z,6.65
2023-03-12T16:31:15.542Z,7.47
2023-03-12T16:33:43.659Z,7.93
2023-03-12T16:36:15.581Z,7.82
2023-03-12T16:38:43.078Z,5.82
2023-03-12T16:41:28.592Z,5.75
2023-03-12T16:43:55.652Z,6.78
2023-03-12T16:46:23.056Z,6.45
2023-03-12T16:48:52.475Z,5.97
2023-03-12T16:51:19.264Z,7.85
2023-03-12T16:53:47.588Z,6.53
2023-03-12T16:56:19.715Z,7.30
2023-03-12T16:58:48.244Z,6.13
2023-03-12T17:01:16.565Z,7.88
2023-03-12T17:03:45.474Z,8.45
2023-03-12T17:06:15.818Z,6.45
2023-03-12T17:08:43.064Z,7.90
2023-03-12T17:11:21.837Z,7.68
2023-03-12T17:13:51.518Z,6.28
2023-03-12T17:16:17.968Z,7.45
2023-03-12T17:18:45.434Z,5.95
2023-03-12T17:21:13.519Z,10.32
2023-03-12T17:23:39.918Z,5.70
2023-03-12T17:26:06.464Z,7.30
2023-03-12T17:28:32.975Z,6.53
2023-03-12T17:30:59.550Z,6.72
2023-03-12T17:33:26.890Z,8.07
2023-03-12T17:35:58.305Z,8.88
2023-03-12T17:38:24.711Z,7.53
2023-03-12T17:40:51.115Z,6.70
2023-03-12T17:43:17.507Z,8.07
2023-03-12T17:45:43.884Z,5.85
2023-03-12T17:48:10.342Z,6.82
2023-03-12T17:50:36.852Z,7.95
2023-03-12T17:53:03.486Z,5.97
2023-03-12T17:55:29.883Z,5.80
2023-03-12T17:57:56.280Z,6.53
2023-03-12T18:00:23.101Z,5.90
2023-03-12T18:02:49.561Z,6.15
2023-03-12T18:05:16.244Z,6.97
2023-03-12T18:07:42.646Z,5.30
2023-03-12T18:10:13.481Z,6.57
2023-03-12T18:12:40.303Z,7.22
2023-03-12T18:15:08.593Z,5.78
2023-03-12T18:17:35.023Z,6.70
2023-03-12T18:20:06.519Z,6.53
2023-03-12T18:22:32.973Z,6.13
2023-03-12T18:24:59.383Z,7.05
2023-03-12T18:27:25.761Z,8.02
2023-03-12T18:29:52.172Z,6.90
2023-03-12T18:32:18.592Z,7.40
2023-03-12T18:34:45.011Z,6.88
2023-03-12T18:37:11.396Z,6.60
2023-03-12T18:39:37.794Z,5.68
2023-03-12T18:42:04.354Z,6.30
2023-03-12T18:44:30.872Z,5.82
2023-03-12T18:46:57.404Z,6.00
2023-03-12T18:49:23.861Z,8.70
2023-03-12T18:51:54.451Z,6.63
2023-03-12T18:54:22.353Z,6.43
2023-03-12T18:56:49.922Z,5.65
2023-03-12T18:59:16.524Z,7.47
2023-03-12T19:01:43.598Z,5.35
2023-03-12T19:04:10.905Z,5.68
2023-03-12T19:06:49.845Z,6.63
2023-03-12T19:09:17.462Z,6.53
2023-03-12T19:11:43.860Z,5.28
2023-03-12T19:14:10.335Z,6.75
2023-03-12T19:16:36.750Z,7.40
2023-03-12T19:19:03.198Z,7.28
2023-03-12T19:21:29.629Z,7.20
2023-03-12T19:23:56.177Z,6.22
2023-03-12T19:26:22.563Z,7.03
2023-03-12T19:28:49.004Z,8.02
2023-03-12T19:31:15.642Z,5.82
2023-03-12T19:33:42.976Z,6.22
2023-03-12T19:36:09.516Z,7.20
2023-03-12T19:38:36.019Z,7.10
2023-03-12T19:41:02.420Z,7.72
2023-03-12T19:43:28.784Z,7.05
2023-03-12T19:45:55.724Z,6.13
2023-03-12T19:48:22.800Z,6.28
2023-03-12T19:50:49.621Z,6.88
2023-03-12T19:53:17.627Z,6.90
2023-03-12T19:55:46.899Z,7.65
2023-03-12T19:58:13.304Z,8.43
2023-03-12T20:00:41.092Z,5.28
2023-03-12T20:03:07.601Z,6.32
2023-03-12T20:05:34.052Z,5.32
2023-03-12T20:08:00.449Z,6.45
2023-03-12T20:10:28.880Z,5.80
2023-03-12T20:12:55.260Z,4.85
2023-03-12T20:15:21.660Z,7.00
2023-03-12T20:17:48.074Z,5.03
2023-03-12T20:20:16.473Z,5.13
2023-03-12T20:22:42.864Z,5.05
2023-03-12T20:25:10.330Z,5.05
2023-03-12T20:27:36.787Z,6.32
2023-03-12T20:30:03.708Z,5.80
2023-03-12T20:32:30.374Z,6.07
2023-03-12T20:34:56.758Z,8.05
2023-03-12T20:37:23.155Z,4.93
2023-03-12T20:39:49.525Z,5.25
2023-03-12T20:42:15.952Z,5.57
2023-03-12T20:44:42.374Z,6.88
2023-03-12T20:47:08.789Z,7.35
2023-03-12T20:49:35.150Z,5.05
2023-03-12T20:52:01.698Z,6.60
2023-03-12T20:54:28.069Z,6.10
2023-03-12T20:56:54.518Z,5.95
2023-03-12T20:59:20.937Z,5.90
2023-03-12T21:01:47.308Z,5.38
2023-03-12T21:04:13.680Z,5.50
2023-03-12T21:06:40.302Z,6.10
2023-03-12T21:09:07.149Z,5.55
2023-03-12T21:11:33.693Z,6.55
2023-03-12T21:14:00.143Z,7.13
2023-03-12T21:16:26.651Z,5.72
2023-03-12T21:18:56.224Z,6.70
2023-03-12T21:21:22.784Z,5.28
2023-03-12T21:23:49.284Z,5.45
2023-03-12T21:26:18.113Z,5.35
2023-03-12T21:28:44.890Z,5.88
2023-03-12T21:31:13.349Z,5.55
2023-03-12T21:33:39.986Z,6.07
2023-03-12T21:36:08.063Z,6.28
2023-03-12T21:38:36.078Z,6.95
2023-03-12T21:41:07.444Z,5.63
2023-03-12T21:43:33.963Z,5.68
2023-03-12T21:46:07.851Z,5.50
2023-03-12T21:48:34.761Z,6.65
2023-03-12T21:51:05.823Z,5.88
2023-03-12T21:53:32.371Z,5.78
2023-03-12T21:55:59.933Z,5.05
2023-03-12T21:58:27.081Z,6.63
2023-03-12T22:01:03.048Z,5.65
2023-03-12T22:03:29.451Z,7.07
2023-03-12T22:05:55.825Z,5.60
2023-03-12T22:08:22.216Z,6.10
2023-03-12T22:10:48.890Z,6.22
2023-03-12T22:13:15.325Z,5.82
2023-03-12T22:15:41.837Z,5.50
2023-03-12T22:18:08.237Z,6.50
2023-03-12T22:20:34.685Z,5.38
2023-03-12T22:23:01.326Z,5.63
2023-03-12T22:25:27.690Z,6.65
2023-03-12T22:27:54.091Z,5.55
2023-03-12T22:30:20.520Z,5.35
2023-03-12T22:32:46.934Z,5.90
2023-03-12T22:35:13.381Z,4.65
2023-03-12T22:37:39.748Z,4.30
2023-03-12T22:40:07.095Z,5.32
2023-03-12T22:42:33.889Z,5.05
2023-03-12T22:45:00.256Z,5.65
2023-03-12T22:47:26.662Z,6.30
2023-03-12T22:49:53.100Z,5.72
2023-03-12T22:52:19.509Z,4.95
2023-03-12T22:54:45.917Z,5.30
2023-03-12T22:57:12.306Z,4.68
2023-03-12T22:59:38.703Z,4.32
2023-03-12T23:02:05.224Z,4.90
2023-03-12T23:04:31.717Z,5.47
2023-03-12T23:07:12.925Z,5.55
2023-03-12T23:09:40.476Z,8.15
2023-03-12T23:12:07.187Z,5.15
2023-03-12T23:14:33.932Z,5.68
2023-03-12T23:17:00.306Z,5.13
2023-03-12T23:19:31.339Z,4.88
2023-03-12T23:21:57.734Z,4.30
2023-03-12T23:24:24.795Z,5.05
2023-03-12T23:26:51.200Z,4.60
2023-03-12T23:29:17.574Z,5.72
2023-03-12T23:31:43.982Z,4.97
2023-03-12T23:34:10.477Z,4.65
2023-03-12T23:36:36.892Z,6.60
2023-03-12T23:39:03.660Z,5.10
2023-03-12T23:41:30.053Z,4.68
2023-03-12T23:43:57.584Z,4.60
2023-03-12T23:46:24.172Z,4.32
2023-03-12T23:48:50.630Z,4.63
2023-03-12T23:51:18.739Z,4.97
2023-03-12T23:53:47.682Z,4.95
2023-03-12T23:56:22.240Z,5.03
2023-03-12T23:58:49.644Z,5.88
